Time;durP1;ratioP1;P1;durP2;ratioP2;P2;SDS_P1;SDS_P2;PMS_P1;PMS_P2;Temp;Humidity;BMP_temperature;BMP_pressure;BME280_temperature;BME280_humidity;BME280_pressure;Samples;Min_cycle;Max_cycle;Signal;HPM_P1;HPM_P2
2021/07/15 00:00:03;;;;;;;2.33;1.40;;;18.30;99.90;;;;;;4990837;28;20486;-86
2021/07/15 00:02:29;;;;;;;1.57;1.43;;;18.50;99.90;;;;;;4996979;28;20455;-86
2021/07/15 00:04:56;;;;;;;1.63;1.30;;;18.50;99.90;;;;;;4992928;28;20452;-85
2021/07/15 00:07:23;;;;;;;1.53;1.30;;;18.40;99.90;;;;;;4991216;28;20473;-86
2021/07/15 00:09:49;;;;;;;1.53;1.33;;;18.30;99.90;;;;;;4978993;28;20535;-85
2021/07/15 00:12:17;;;;;;;1.73;1.17;;;18.30;99.90;;;;;;4975945;28;20979;-84
2021/07/15 00:15:15;;;;;;;0.90;0.90;;;18.20;99.90;;;;;;4975487;28;20456;-86
2021/07/15 00:17:57;;;;;;;2.30;1.30;;;18.30;99.90;;;;;;4946830;28;20478;-86
2021/07/15 00:20:24;;;;;;;1.10;1.10;;;18.30;99.90;;;;;;4990100;28;20469;-88
2021/07/15 00:22:51;;;;;;;5.73;1.50;;;18.20;99.90;;;;;;4998628;28;20457;-88
2021/07/15 00:28:23;;;;;;;2.00;1.30;;;18.30;99.90;;;;;;4943188;29;20446;-86
2021/07/15 00:30:50;;;;;;;1.87;1.60;;;18.40;99.90;;;;;;4963424;28;20489;-84
2021/07/15 00:33:17;;;;;;;1.70;1.60;;;18.30;99.90;;;;;;4981371;28;20451;-85
2021/07/15 00:35:44;;;;;;;2.00;1.20;;;18.20;99.90;;;;;;4994575;28;20455;-85
2021/07/15 00:38:17;;;;;;;1.70;1.60;;;18.20;99.90;;;;;;4995272;28;20533;-86
2021/07/15 00:40:46;;;;;;;1.60;1.50;;;18.30;99.90;;;;;;4994712;28;20494;-86
2021/07/15 00:43:13;;;;;;;2.10;1.80;;;18.60;99.90;;;;;;4996175;28;20455;-89
2021/07/15 00:45:40;;;;;;;2.47;1.80;;;18.50;99.90;;;;;;4971526;28;20463;-86
2021/07/15 00:48:07;;;;;;;1.73;1.53;;;18.60;99.90;;;;;;4979625;28;20507;-86
2021/07/15 00:50:45;;;;;;;2.97;1.70;;;18.30;99.90;;;;;;4994355;28;20479;-87
2021/07/15 00:53:13;;;;;;;1.73;1.40;;;18.20;99.90;;;;;;4983795;28;20952;-86
2021/07/15 00:55:42;;;;;;;1.63;1.53;;;18.30;99.90;;;;;;4994532;28;20438;-88
2021/07/15 00:58:12;;;;;;;3.30;1.70;;;18.30;99.90;;;;;;4997900;28;20506;-87
2021/07/15 01:00:41;;;;;;;2.10;1.63;;;18.40;99.90;;;;;;5011334;28;20473;-86
2021/07/15 01:03:09;;;;;;;1.27;1.20;;;18.20;99.90;;;;;;4998566;28;20583;-87
2021/07/15 01:05:44;;;;;;;1.70;1.60;;;18.10;99.90;;;;;;5005532;28;20467;-87
2021/07/15 01:08:12;;;;;;;3.70;1.50;;;18.00;99.90;;;;;;4983587;28;20438;-83
2021/07/15 01:10:50;;;;;;;2.33;1.50;;;18.00;99.90;;;;;;4970461;28;20501;-83
2021/07/15 01:13:20;;;;;;;1.60;1.50;;;18.00;99.90;;;;;;4995351;28;20455;-84
2021/07/15 01:16:11;;;;;;;1.80;1.70;;;18.00;99.90;;;;;;4990047;28;20812;-83
2021/07/15 01:19:07;;;;;;;1.77;1.63;;;18.10;99.90;;;;;;4976983;28;20474;-85
2021/07/15 01:21:52;;;;;;;2.50;1.77;;;18.10;99.90;;;;;;4981227;28;20484;-84
2021/07/15 01:24:25;;;;;;;1.90;1.80;;;18.40;99.90;;;;;;4993687;28;20545;-84
2021/07/15 01:27:29;;;;;;;1.50;1.40;;;18.40;99.90;;;;;;4973464;28;20453;-85
2021/07/15 01:30:01;;;;;;;1.60;1.50;;;18.40;99.90;;;;;;4980864;28;20482;-84
2021/07/15 01:32:32;;;;;;;1.63;1.53;;;18.30;99.90;;;;;;4998425;28;20462;-86
2021/07/15 01:35:06;;;;;;;3.33;1.70;;;18.40;99.90;;;;;;4978132;28;20471;-84
2021/07/15 01:37:36;;;;;;;5.13;2.03;;;18.30;99.90;;;;;;4980644;28;20451;-85
2021/07/15 01:40:06;;;;;;;3.00;2.00;;;18.20;99.90;;;;;;4980430;28;20931;-85
2021/07/15 01:42:35;;;;;;;2.10;1.90;;;18.40;99.90;;;;;;4976915;28;20466;-85
2021/07/15 01:52:15;;;;;;;1.63;1.53;;;18.10;99.90;;;;;;5007483;28;20531;-86
2021/07/15 01:54:46;;;;;;;2.53;2.10;;;18.40;99.90;;;;;;5019492;28;20521;-86
2021/07/15 01:57:13;;;;;;;2.10;2.00;;;18.40;99.90;;;;;;5026803;28;20442;-86
2021/07/15 01:59:42;;;;;;;1.93;1.73;;;18.30;99.90;;;;;;5021825;28;20476;-85
2021/07/15 02:02:10;;;;;;;1.97;1.87;;;18.20;99.90;;;;;;4986651;28;20473;-84
2021/07/15 02:04:39;;;;;;;3.60;1.90;;;18.20;99.90;;;;;;5001304;28;20825;-85
2021/07/15 02:07:07;;;;;;;2.17;2.03;;;18.20;99.90;;;;;;5008644;28;20549;-86
2021/07/15 02:09:37;;;;;;;3.03;2.30;;;18.20;99.90;;;;;;4999546;28;21004;-85
2021/07/15 02:12:05;;;;;;;2.90;1.63;;;18.00;99.90;;;;;;5001204;28;20453;-86
2021/07/15 02:14:32;;;;;;;2.00;1.90;;;18.00;99.90;;;;;;5002679;28;20849;-85
2021/07/15 02:17:01;;;;;;;1.83;1.73;;;18.00;99.90;;;;;;5004337;28;21025;-85
2021/07/15 02:19:30;;;;;;;2.03;1.90;;;18.00;99.90;;;;;;5009375;28;20458;-86
2021/07/15 02:21:58;;;;;;;2.77;1.67;;;17.90;99.90;;;;;;5017347;28;20478;-86
2021/07/15 02:24:27;;;;;;;2.53;2.33;;;17.90;99.90;;;;;;4996981;28;20455;-85
2021/07/15 02:26:57;;;;;;;1.93;1.80;;;17.90;99.90;;;;;;5012000;28;20463;-85
2021/07/15 02:29:24;;;;;;;1.73;1.63;;;17.70;99.90;;;;;;4983411;28;20486;-85
2021/07/15 02:32:06;;;;;;;2.33;1.87;;;17.70;99.90;;;;;;5002338;28;20527;-85
2021/07/15 02:34:52;;;;;;;2.60;1.90;;;17.60;99.90;;;;;;5005674;28;20454;-86
2021/07/15 02:37:26;;;;;;;7.03;1.90;;;17.50;99.90;;;;;;4990461;28;20454;-86
2021/07/15 02:39:53;;;;;;;2.20;2.00;;;17.50;99.90;;;;;;5018266;28;20458;-85
2021/07/15 02:42:19;;;;;;;1.80;1.70;;;17.40;99.90;;;;;;4990544;28;20462;-85
2021/07/15 02:44:48;;;;;;;2.00;1.90;;;17.40;99.90;;;;;;5021038;28;20449;-85
2021/07/15 02:47:15;;;;;;;1.83;1.73;;;17.40;99.90;;;;;;5009153;28;20462;-84
2021/07/15 02:49:43;;;;;;;3.30;1.70;;;17.40;99.90;;;;;;5007159;28;20489;-84
2021/07/15 02:52:12;;;;;;;1.70;1.60;;;17.40;99.90;;;;;;5003707;28;20467;-87
2021/07/15 02:54:42;;;;;;;1.77;1.67;;;17.50;99.90;;;;;;4996998;28;20582;-85
2021/07/15 02:57:48;;;;;;;2.10;2.00;;;17.50;99.90;;;;;;5009169;28;20518;-84
2021/07/15 03:00:17;;;;;;;3.10;1.90;;;17.50;99.90;;;;;;4885513;29;20518;-87
2021/07/15 03:02:58;;;;;;;2.60;2.40;;;17.50;99.90;;;;;;4915249;29;20466;-86
2021/07/15 03:05:29;;;;;;;2.20;2.10;;;17.50;99.90;;;;;;4961884;28;20465;-85
2021/07/15 03:08:04;;;;;;;2.50;2.30;;;17.50;99.90;;;;;;5002924;28;20911;-86
2021/07/15 03:10:32;;;;;;;2.20;2.10;;;17.60;99.90;;;;;;5003100;28;20489;-86
2021/07/15 03:12:59;;;;;;;2.27;2.17;;;17.70;99.90;;;;;;5018827;28;20458;-85
2021/07/15 03:18:53;;;;;;;3.83;2.67;;;18.10;99.90;;;;;;4959512;28;20445;-85
2021/07/15 03:21:24;;;;;;;3.20;3.00;;;18.20;99.90;;;;;;5020385;28;20474;-88
2021/07/15 03:24:30;;;;;;;3.20;2.90;;;18.20;99.90;;;;;;4973425;28;20438;-86
2021/07/15 03:26:58;;;;;;;3.97;3.67;;;18.50;99.90;;;;;;5000849;28;20463;-87
2021/07/15 03:29:25;;;;;;;3.50;3.20;;;18.60;99.90;;;;;;5010531;28;20477;-85
2021/07/15 03:31:54;;;;;;;3.93;3.57;;;18.50;99.90;;;;;;5012318;28;20474;-86
2021/07/15 03:34:22;;;;;;;3.77;3.57;;;18.40;99.90;;;;;;4996600;28;20469;-86
2021/07/15 03:36:50;;;;;;;5.80;3.73;;;18.30;99.90;;;;;;4992211;28;20453;-87
2021/07/15 03:39:20;;;;;;;4.33;3.43;;;18.10;99.90;;;;;;5012796;28;20455;-85
2021/07/15 03:41:48;;;;;;;3.80;3.40;;;17.90;99.90;;;;;;4979379;28;21202;-85
2021/07/15 03:44:16;;;;;;;3.50;3.20;;;17.80;99.90;;;;;;5000568;28;20940;-85
2021/07/15 03:46:45;;;;;;;4.87;3.77;;;17.80;99.90;;;;;;5017632;28;20461;-86
2021/07/15 03:49:17;;;;;;;5.30;3.30;;;17.80;99.90;;;;;;5018509;28;20509;-86
2021/07/15 04:03:19;;;;;;;3.93;3.20;;;17.90;99.90;;;;;;4993725;28;21003;-87
2021/07/15 04:05:49;;;;;;;3.37;3.07;;;17.70;99.90;;;;;;5005753;28;20444;-85
2021/07/15 04:11:52;;;;;;;4.20;3.80;;;18.00;99.90;;;;;;4936130;29;20948;-86
2021/07/15 04:14:31;;;;;;;5.70;4.53;;;18.20;99.90;;;;;;4921668;29;20522;-85
2021/07/15 04:17:11;;;;;;;4.27;3.63;;;18.20;99.90;;;;;;4994252;28;20957;-86
2021/07/15 04:22:11;;;;;;;4.10;3.37;;;18.10;99.90;;;;;;4976929;28;20472;-87
2021/07/15 04:24:40;;;;;;;6.07;3.97;;;18.00;99.90;;;;;;4976564;28;20460;-86
2021/07/15 04:35:38;;;;;;;5.20;4.50;;;17.60;99.90;;;;;;5107822;23;20498;-86
2021/07/15 04:38:05;;;;;;;6.00;4.77;;;17.70;99.90;;;;;;5019937;28;20472;-84
2021/07/15 04:40:33;;;;;;;4.60;4.20;;;17.70;99.90;;;;;;4977515;28;20502;-85
2021/07/15 04:43:06;;;;;;;6.90;5.17;;;18.20;99.90;;;;;;5012649;28;20549;-85
2021/07/15 04:46:15;;;;;;;6.63;5.73;;;18.10;99.90;;;;;;4998691;28;20469;-85
2021/07/15 04:48:42;;;;;;;7.30;5.60;;;18.30;99.90;;;;;;5022647;28;22876;-86
2021/07/15 04:55:46;;;;;;;5.03;4.57;;;18.70;99.90;;;;;;4865837;29;20540;-87
2021/07/15 04:58:14;;;;;;;5.33;4.00;;;18.50;99.90;;;;;;4895612;29;20461;-88
2021/07/15 05:08:08;;;;;;;5.63;5.13;;;18.30;99.90;;;;;;4861718;29;20518;-87
2021/07/15 05:14:24;;;;;;;8.83;6.43;;;18.20;99.90;;;;;;4880071;29;20584;-87
2021/07/15 05:16:50;;;;;;;8.97;8.07;;;18.50;99.90;;;;;;4908943;29;20463;-88
2021/07/15 05:19:18;;;;;;;10.80;7.80;;;18.80;99.90;;;;;;4976704;28;20458;-85
2021/07/15 05:21:45;;;;;;;10.10;9.10;;;18.90;99.90;;;;;;4988935;28;20475;-85
2021/07/15 05:24:11;;;;;;;11.43;8.73;;;19.00;99.90;;;;;;5007756;28;20447;-87
2021/07/15 05:26:38;;;;;;;9.87;8.97;;;19.10;99.90;;;;;;5009657;28;20552;-86
2021/07/15 05:29:05;;;;;;;10.93;9.73;;;19.10;99.90;;;;;;4997430;28;20465;-86
2021/07/15 05:31:31;;;;;;;10.67;9.60;;;18.90;99.90;;;;;;4994110;28;20484;-86
2021/07/15 05:33:58;;;;;;;10.43;8.90;;;18.90;99.90;;;;;;4991856;28;20781;-86
2021/07/15 05:36:25;;;;;;;12.37;10.80;;;18.90;99.90;;;;;;5006630;28;20995;-85
2021/07/15 05:38:51;;;;;;;10.77;9.23;;;19.00;99.90;;;;;;4993697;28;20463;-86
2021/07/15 05:41:18;;;;;;;10.77;9.30;;;19.00;99.90;;;;;;5007240;28;20484;-86
2021/07/15 05:47:48;;;;;;;10.60;9.60;;;19.10;99.90;;;;;;4919769;28;20478;-86
2021/07/15 05:50:14;;;;;;;12.20;10.93;;;19.20;99.90;;;;;;4995851;28;20488;-86
2021/07/15 05:52:41;;;;;;;12.70;11.37;;;19.30;99.90;;;;;;5005770;28;20456;-84
2021/07/15 05:55:11;;;;;;;12.37;11.17;;;18.90;99.90;;;;;;4994007;28;20476;-86
2021/07/15 05:57:38;;;;;;;13.77;12.40;;;19.00;99.90;;;;;;5005166;28;21039;-85
2021/07/15 06:00:08;;;;;;;12.57;11.27;;;19.20;99.90;;;;;;4979006;28;20486;-85
2021/07/15 06:06:34;;;;;;;12.30;10.97;;;19.00;99.90;;;;;;4998220;28;20447;-88
2021/07/15 06:12:42;;;;;;;11.03;9.70;;;18.80;99.90;;;;;;4997771;28;20415;-89
2021/07/15 06:15:09;;;;;;;10.90;9.80;;;19.00;99.90;;;;;;4987815;28;20543;-85
2021/07/15 06:17:36;;;;;;;12.87;11.57;;;19.10;99.90;;;;;;5002747;28;20501;-86
2021/07/15 06:20:04;;;;;;;11.63;10.13;;;19.40;99.90;;;;;;5007545;28;20481;-86
2021/07/15 06:22:31;;;;;;;12.90;10.13;;;19.80;99.90;;;;;;4984884;28;20439;-85
2021/07/15 06:24:58;;;;;;;12.43;11.20;;;19.80;99.90;;;;;;4985561;28;20458;-85
2021/07/15 06:27:33;;;;;;;11.07;9.97;;;19.80;99.90;;;;;;5018675;28;20454;-87
2021/07/15 06:32:59;;;;;;;11.67;10.53;;;19.60;99.90;;;;;;5205498;23;20553;-86
2021/07/15 06:35:40;;;;;;;10.53;9.53;;;19.50;99.90;;;;;;4994184;28;20446;-86
2021/07/15 06:38:31;;;;;;;10.73;9.63;;;19.40;99.90;;;;;;5003540;28;20492;-86
2021/07/15 06:41:00;;;;;;;9.70;8.80;;;19.40;99.90;;;;;;4988850;28;20478;-86
2021/07/15 06:50:42;;;;;;;7.77;7.07;;;19.10;99.90;;;;;;5029239;28;20469;-86
2021/07/15 06:53:09;;;;;;;9.90;9.00;;;19.60;99.90;;;;;;5022290;28;20483;-85
2021/07/15 06:55:36;;;;;;;9.93;8.93;;;19.90;99.90;;;;;;5000040;28;20461;-86
2021/07/15 06:58:05;;;;;;;8.43;7.63;;;20.10;99.90;;;;;;5002373;28;21091;-87
2021/07/15 07:00:33;;;;;;;10.63;8.73;;;20.10;99.90;;;;;;4981865;28;20474;-86
2021/07/15 07:03:00;;;;;;;8.80;8.00;;;19.90;99.90;;;;;;4987669;28;20450;-86
2021/07/15 07:05:27;;;;;;;8.57;7.77;;;20.00;99.90;;;;;;5025454;28;20453;-89
2021/07/15 07:07:54;;;;;;;8.10;7.30;;;20.00;99.90;;;;;;5030712;28;20453;-86
2021/07/15 07:10:35;;;;;;;8.10;7.33;;;20.10;99.90;;;;;;4952300;28;20576;-87
2021/07/15 07:13:01;;;;;;;8.23;7.43;;;20.20;99.90;;;;;;4971576;28;20448;-87
2021/07/15 07:16:02;;;;;;;7.30;6.63;;;20.10;99.90;;;;;;4956211;28;20444;-87
2021/07/15 07:18:43;;;;;;;6.87;6.27;;;20.00;99.90;;;;;;4956990;28;20840;-86
2021/07/15 07:23:45;;;;;;;6.63;6.13;;;20.50;99.90;;;;;;5227649;23;20806;-86
2021/07/15 07:30:30;;;;;;;7.50;6.80;;;20.70;99.90;;;;;;4835311;29;20515;-87
2021/07/15 07:32:57;;;;;;;8.27;7.47;;;20.80;99.90;;;;;;4973407;28;20533;-85
2021/07/15 07:35:24;;;;;;;7.67;6.97;;;20.90;99.90;;;;;;4996523;28;20854;-86
2021/07/15 07:37:50;;;;;;;8.10;7.30;;;20.90;99.90;;;;;;4989816;28;20818;-87
2021/07/15 07:40:20;;;;;;;7.60;7.00;;;20.90;99.90;;;;;;4981768;28;20574;-87
2021/07/15 07:42:48;;;;;;;8.07;7.37;;;20.60;99.90;;;;;;5004133;28;20443;-89
2021/07/15 07:45:17;;;;;;;7.60;6.90;;;20.80;99.90;;;;;;5001575;28;20558;-87
2021/07/15 07:48:00;;;;;;;8.87;8.17;;;21.00;99.90;;;;;;4929855;29;20468;-87
2021/07/15 07:53:02;;;;;;;9.97;7.00;;;21.40;99.90;;;;;;5177825;23;20859;-86
2021/07/15 07:55:31;;;;;;;7.70;7.00;;;21.40;99.90;;;;;;5005953;28;20466;-87
2021/07/15 07:59:10;;;;;;;;;;;;;;;;;;;;;
2021/07/15 08:05:36;;;;;;;6.30;5.70;;;21.70;99.90;;;;;;5028120;28;20429;-85
2021/07/15 08:12:03;;;;;;;6.00;5.50;;;22.60;99.90;;;;;;4923038;29;20473;-87
2021/07/15 08:26:42;;;;;;;6.60;6.10;;;22.20;99.90;;;;;;4948074;28;21049;-87
2021/07/15 08:29:47;;;;;;;7.80;7.00;;;22.50;99.90;;;;;;4897799;28;20452;-87
2021/07/15 08:33:19;;;;;;;9.67;6.43;;;22.20;99.90;;;;;;4896413;29;20538;-86
2021/07/15 08:36:53;;;;;;;7.13;6.53;;;22.50;99.90;;;;;;4927333;29;20458;-86
2021/07/15 08:39:20;;;;;;;7.70;7.10;;;22.90;99.90;;;;;;4872330;29;20460;-87
2021/07/15 08:41:48;;;;;;;8.30;7.60;;;23.00;99.90;;;;;;4872447;29;20469;-86
2021/07/15 08:44:49;;;;;;;;;;;;;;;;;;;;;
2021/07/15 08:47:35;;;;;;;9.03;8.17;;;22.70;99.90;;;;;;4931391;28;20484;-86
2021/07/15 08:50:03;;;;;;;9.70;7.40;;;22.60;99.90;;;;;;4937092;29;20474;-88
2021/07/15 08:52:32;;;;;;;7.83;7.23;;;22.90;99.90;;;;;;4931091;28;20460;-87
2021/07/15 08:57:39;;;;;;;7.50;6.80;;;23.30;99.90;;;;;;4958500;28;20551;-87
2021/07/15 09:03:39;;;;;;;5.40;5.00;;;23.40;99.90;;;;;;4903224;29;20433;-87
2021/07/15 09:06:06;;;;;;;4.70;4.30;;;23.30;99.90;;;;;;4931172;28;20446;-86
2021/07/15 09:08:38;;;;;;;5.17;4.77;;;23.30;99.90;;;;;;5002175;28;20461;-87
2021/07/15 09:11:09;;;;;;;4.30;4.00;;;23.30;99.90;;;;;;5003653;28;20504;-86
2021/07/15 09:13:50;;;;;;;4.80;4.50;;;23.20;99.90;;;;;;5000377;28;20435;-87
2021/07/15 09:16:18;;;;;;;5.07;3.83;;;23.20;99.90;;;;;;5018039;28;20503;-87
2021/07/15 09:18:58;;;;;;;3.83;3.50;;;22.70;99.90;;;;;;5006744;28;20791;-87
2021/07/15 09:21:28;;;;;;;3.90;3.60;;;22.70;99.90;;;;;;5012172;28;20457;-87
2021/07/15 09:24:39;;;;;;;3.27;3.00;;;22.90;99.90;;;;;;4943809;29;20525;-86
2021/07/15 09:27:21;;;;;;;3.33;2.90;;;23.50;99.90;;;;;;4936387;29;20492;-88
2021/07/15 09:30:14;;;;;;;2.70;2.50;;;23.80;99.90;;;;;;4924410;29;20474;-86
2021/07/15 09:32:58;;;;;;;2.73;2.53;;;25.10;99.10;;;;;;4913779;29;20489;-85
2021/07/15 09:35:44;;;;;;;2.33;2.13;;;27.00;94.30;;;;;;4848865;29;20477;-87
2021/07/15 09:38:22;;;;;;;2.67;2.30;;;27.30;92.00;;;;;;4859799;29;21028;-85
2021/07/15 09:40:57;;;;;;;1.93;1.83;;;26.70;92.50;;;;;;4862050;29;20512;-86
2021/07/15 09:44:12;;;;;;;3.23;2.03;;;26.10;93.30;;;;;;4807651;29;21348;-86
2021/07/15 09:47:44;;;;;;;;;;;;;;;;;;;;;
2021/07/15 09:50:28;;;;;;;1.83;1.60;;;25.60;93.20;;;;;;4924743;29;20484;-86
2021/07/15 09:53:40;;;;;;;1.87;1.77;;;25.80;94.20;;;;;;4918189;29;20469;-86
2021/07/15 09:56:09;;;;;;;2.10;2.00;;;26.30;93.00;;;;;;4920237;29;20681;-87
2021/07/15 10:01:54;;;;;;;2.20;2.10;;;25.10;94.30;;;;;;4940882;29;20449;-87
2021/07/15 10:04:27;;;;;;;2.30;2.10;;;25.60;94.00;;;;;;4933473;29;20579;-86
2021/07/15 10:06:57;;;;;;;1.93;1.83;;;25.10;94.30;;;;;;4943580;29;20460;-86
2021/07/15 10:13:11;;;;;;;2.00;1.90;;;24.20;96.10;;;;;;4969933;28;20544;-87
2021/07/15 10:16:25;;;;;;;;;;;;;;;;;;;;;
2021/07/15 10:19:23;;;;;;;2.40;2.20;;;24.20;97.50;;;;;;5031494;28;20503;-87
2021/07/15 10:22:07;;;;;;;2.20;2.10;;;24.20;98.10;;;;;;5035443;28;20478;-87
2021/07/15 10:25:54;;;;;;;3.17;2.87;;;24.50;96.70;;;;;;4996261;28;20903;-86
2021/07/15 10:28:27;;;;;;;2.63;2.50;;;24.40;96.30;;;;;;5025081;28;20422;-87
2021/07/15 10:30:59;;;;;;;2.77;2.57;;;24.10;96.30;;;;;;5019441;28;20488;-87
2021/07/15 10:33:27;;;;;;;2.90;2.70;;;24.30;96.00;;;;;;5016450;28;20487;-87
2021/07/15 10:39:15;;;;;;;3.00;2.70;;;24.60;95.00;;;;;;4996682;28;20584;-84
2021/07/15 10:46:17;;;;;;;;;;;;;;;;;;;;;
2021/07/15 10:53:39;;;;;;;1.20;1.20;;;24.20;95.10;;;;;;4984787;28;20470;-87
2021/07/15 11:20:32;;;;;;;1.90;1.80;;;23.30;95.60;;;;;;4919894;29;20453;-87
2021/07/15 11:23:07;;;;;;;1.53;1.40;;;23.80;94.90;;;;;;4954937;28;20451;-87
2021/07/15 11:25:42;;;;;;;1.60;1.40;;;23.70;94.60;;;;;;5001029;28;20508;-87
2021/07/15 11:28:16;;;;;;;4.93;1.33;;;23.60;94.60;;;;;;5011178;28;20995;-85
2021/07/15 11:38:47;;;;;;;3.07;1.70;;;23.60;95.20;;;;;;4960066;29;20452;-87
2021/07/15 11:42:16;;;;;;;;;;;;;;;;;;;;;
2021/07/15 11:49:55;;;;;;;1.67;1.57;;;23.40;96.10;;;;;;4853304;29;20433;-89
2021/07/15 11:52:45;;;;;;;1.80;1.70;;;23.60;96.50;;;;;;4956485;28;20514;-86
2021/07/15 11:55:14;;;;;;;2.73;1.93;;;24.00;95.30;;;;;;4998298;28;20549;-87
2021/07/15 11:57:41;;;;;;;1.80;1.70;;;24.00;95.00;;;;;;5000977;28;20479;-87
2021/07/15 12:00:11;;;;;;;2.40;2.20;;;23.80;95.30;;;;;;5008511;28;20475;-87
2021/07/15 12:02:55;;;;;;;2.90;2.13;;;23.60;96.10;;;;;;5020564;28;20467;-88
2021/07/15 12:05:30;;;;;;;4.10;2.57;;;23.60;96.50;;;;;;5034449;28;20465;-87
2021/07/15 12:08:06;;;;;;;2.70;2.50;;;23.70;96.40;;;;;;5018434;28;20472;-88
2021/07/15 12:10:49;;;;;;;2.47;2.27;;;23.70;96.70;;;;;;4981192;28;20447;-86
2021/07/15 12:13:18;;;;;;;2.47;2.27;;;23.90;96.80;;;;;;4989480;28;20454;-86
2021/07/15 12:15:50;;;;;;;2.00;1.90;;;23.80;96.50;;;;;;4984651;28;20459;-85
2021/07/15 12:18:19;;;;;;;2.87;1.90;;;23.70;96.70;;;;;;5027921;28;20465;-86
2021/07/15 12:21:36;;;;;;;;;;;;;;;;;;;;;
2021/07/15 12:24:27;;;;;;;2.10;2.00;;;23.90;96.70;;;;;;5009027;28;20468;-86
2021/07/15 12:26:55;;;;;;;2.20;2.00;;;24.00;95.70;;;;;;5000427;28;20460;-87
2021/07/15 12:29:28;;;;;;;2.63;2.43;;;24.00;95.80;;;;;;5018126;28;20461;-85
2021/07/15 12:33:00;;;;;;;2.77;2.10;;;23.80;96.30;;;;;;5014661;28;20478;-84
2021/07/15 12:35:31;;;;;;;2.77;2.60;;;23.80;96.40;;;;;;4938964;29;20446;-86
2021/07/15 12:37:58;;;;;;;3.33;3.03;;;23.60;96.90;;;;;;4989548;28;20454;-86
2021/07/15 12:40:31;;;;;;;2.77;2.57;;;23.70;97.30;;;;;;4996198;28;20986;-86
2021/07/15 12:43:13;;;;;;;2.70;2.50;;;23.60;97.20;;;;;;4999802;28;20508;-86
2021/07/15 12:46:08;;;;;;;2.70;2.50;;;23.60;97.40;;;;;;4997369;28;20462;-85
2021/07/15 12:48:42;;;;;;;3.50;3.10;;;23.70;97.40;;;;;;5000621;28;20469;-86
2021/07/15 12:51:09;;;;;;;3.80;3.50;;;23.60;97.30;;;;;;4997193;28;20807;-87
2021/07/15 12:53:38;;;;;;;2.90;2.70;;;23.70;97.20;;;;;;4998355;28;20454;-85
2021/07/15 12:56:05;;;;;;;2.90;2.70;;;23.70;97.40;;;;;;5002954;28;20454;-86
2021/07/15 12:58:35;;;;;;;2.93;2.67;;;23.50;97.30;;;;;;5019352;28;20460;-87
2021/07/15 13:01:06;;;;;;;3.47;3.17;;;23.50;97.30;;;;;;5020965;28;20493;-86
2021/07/15 13:03:46;;;;;;;2.97;2.67;;;23.40;97.50;;;;;;5012334;28;20834;-86
2021/07/15 13:06:29;;;;;;;5.40;3.57;;;23.40;97.80;;;;;;5010587;28;20451;-86
2021/07/15 13:09:03;;;;;;;3.60;3.30;;;23.40;98.20;;;;;;5012643;28;20957;-87
2021/07/15 13:14:17;;;;;;;3.57;3.37;;;23.70;98.00;;;;;;5024378;28;20446;-87
2021/07/15 13:16:47;;;;;;;3.37;3.17;;;23.70;97.50;;;;;;5013435;28;20533;-86
2021/07/15 13:19:24;;;;;;;3.67;3.37;;;23.80;97.30;;;;;;5023441;28;20789;-87
2021/07/15 13:25:27;;;;;;;3.43;3.13;;;23.80;97.70;;;;;;5021336;28;20483;-85
2021/07/15 13:28:09;;;;;;;4.70;3.50;;;23.70;98.10;;;;;;5026952;28;20469;-87
2021/07/15 13:30:44;;;;;;;4.23;3.80;;;23.70;98.20;;;;;;5000623;28;20469;-86
2021/07/15 13:33:17;;;;;;;3.20;2.93;;;24.40;97.00;;;;;;5032908;28;20504;-87
2021/07/15 13:36:25;;;;;;;3.73;3.43;;;24.60;96.60;;;;;;5010793;28;20533;-86
2021/07/15 13:39:36;;;;;;;3.50;3.30;;;24.50;96.50;;;;;;5004923;28;20420;-86
2021/07/15 13:42:18;;;;;;;3.90;3.47;;;24.50;96.70;;;;;;5021881;28;20471;-86
2021/07/15 13:45:00;;;;;;;3.50;3.20;;;24.60;96.20;;;;;;4994052;28;20545;-86
2021/07/15 13:48:27;;;;;;;3.33;3.10;;;24.90;95.30;;;;;;4998915;28;20458;-86
2021/07/15 13:51:23;;;;;;;3.73;3.43;;;25.10;95.00;;;;;;5008791;28;20473;-86
2021/07/15 13:54:22;;;;;;;4.03;3.20;;;25.10;95.10;;;;;;4999061;28;20526;-86
2021/07/15 13:58:08;;;;;;;3.17;2.93;;;24.70;95.30;;;;;;4904055;29;20554;-86
2021/07/15 14:00:51;;;;;;;9.30;8.50;;;24.80;94.40;;;;;;4896154;29;20474;-86
2021/07/15 14:03:19;;;;;;;4.00;3.70;;;24.90;95.20;;;;;;4905207;29;20458;-84
2021/07/15 14:09:45;;;;;;;4.03;3.73;;;24.60;96.20;;;;;;4863581;29;20999;-85
2021/07/15 14:27:04;;;;;;;3.80;3.43;;;25.30;94.00;;;;;;4845176;29;20458;-86
2021/07/15 14:29:48;;;;;;;4.70;3.50;;;24.90;94.70;;;;;;4922613;29;20549;-84
2021/07/15 14:39:52;;;;;;;4.03;3.20;;;25.40;94.40;;;;;;4899389;29;20502;-86
2021/07/15 14:42:18;;;;;;;4.30;3.50;;;25.30;93.80;;;;;;4960993;29;20453;-87
2021/07/15 14:44:45;;;;;;;3.90;3.50;;;24.90;94.40;;;;;;4930034;29;20450;-87
2021/07/15 14:47:12;;;;;;;3.60;3.30;;;25.30;94.30;;;;;;4971104;28;20447;-85
2021/07/15 14:49:39;;;;;;;4.60;4.30;;;25.60;93.70;;;;;;4987760;28;20541;-86
2021/07/15 14:52:07;;;;;;;4.60;4.20;;;25.40;94.20;;;;;;4996487;28;20485;-86
2021/07/15 14:54:34;;;;;;;3.70;3.50;;;25.30;94.60;;;;;;5008796;28;20970;-85
2021/07/15 14:57:00;;;;;;;4.87;4.20;;;25.10;94.70;;;;;;5014088;28;20472;-85
2021/07/15 14:59:27;;;;;;;4.40;4.10;;;25.00;94.80;;;;;;5009779;28;20743;-87
2021/07/15 15:02:16;;;;;;;4.90;4.50;;;25.00;95.00;;;;;;5016818;28;20482;-86
2021/07/15 15:08:30;;;;;;;4.50;4.20;;;24.80;94.70;;;;;;4938752;28;20706;-85
2021/07/15 15:11:54;;;;;;;4.03;3.70;;;24.90;95.40;;;;;;5016107;28;20474;-85
2021/07/15 15:14:31;;;;;;;4.60;4.30;;;25.20;95.00;;;;;;4926554;29;20456;-85
2021/07/15 15:17:01;;;;;;;5.73;5.23;;;25.60;94.30;;;;;;4947553;28;20445;-86
2021/07/15 15:20:18;;;;;;;5.03;4.63;;;25.50;93.90;;;;;;5019556;28;20457;-85
2021/07/15 15:23:05;;;;;;;5.03;4.53;;;25.40;93.90;;;;;;5005500;28;20449;-86
2021/07/15 15:25:35;;;;;;;5.07;4.67;;;25.40;94.20;;;;;;4992603;28;20443;-86
2021/07/15 15:32:51;;;;;;;5.60;4.70;;;25.00;94.20;;;;;;5008319;28;20493;-86
2021/07/15 15:35:33;;;;;;;5.87;5.27;;;24.80;94.90;;;;;;5014353;28;20446;-86
2021/07/15 15:38:23;;;;;;;6.50;4.73;;;24.80;95.10;;;;;;4998031;28;20451;-86
2021/07/15 16:03:48;;;;;;;;;;;;;;;;;;;;;
2021/07/15 16:06:39;;;;;;;7.27;6.67;;;25.20;95.50;;;;;;5032475;28;20415;-87
2021/07/15 16:12:09;;;;;;;7.00;6.20;;;25.30;95.80;;;;;;5053594;23;20505;-86
2021/07/15 16:14:42;;;;;;;6.70;6.20;;;25.20;95.70;;;;;;5000873;28;20451;-87
2021/07/15 16:29:42;;;;;;;7.43;6.70;;;24.90;99.90;;;;;;4959464;28;20448;-86
2021/07/15 16:32:09;;;;;;;6.23;5.70;;;24.90;99.90;;;;;;5016204;28;20473;-86
2021/07/15 16:34:48;;;;;;;6.87;6.33;;;25.20;99.90;;;;;;5002942;28;20450;-85
2021/07/15 16:37:34;;;;;;;7.30;6.70;;;25.20;99.90;;;;;;5020353;28;20458;-86
2021/07/15 16:40:06;;;;;;;7.37;6.67;;;25.00;99.90;;;;;;5001089;28;20552;-86
2021/07/15 16:42:33;;;;;;;13.30;7.17;;;25.10;99.90;;;;;;5019752;28;20544;-87
2021/07/15 16:45:48;;;;;;;9.00;8.20;;;25.10;99.90;;;;;;5001059;28;20447;-85
2021/07/15 16:48:15;;;;;;;8.07;7.27;;;24.90;99.90;;;;;;5016269;28;20458;-86
2021/07/15 16:50:42;;;;;;;7.93;7.17;;;24.90;99.90;;;;;;5010336;28;20470;-88
2021/07/15 16:53:08;;;;;;;7.10;6.50;;;25.00;99.90;;;;;;5014854;28;20482;-86
2021/07/15 16:56:53;;;;;;;8.30;7.40;;;25.00;99.90;;;;;;5019119;28;20449;-85
2021/07/15 17:00:04;;;;;;;5.90;5.40;;;24.90;99.90;;;;;;5020772;28;20433;-86
2021/07/15 17:02:31;;;;;;;9.07;8.23;;;24.50;99.90;;;;;;4987945;28;20897;-85
2021/07/15 17:04:58;;;;;;;9.00;7.37;;;24.30;99.90;;;;;;5006462;28;20465;-86
2021/07/15 17:07:26;;;;;;;8.37;7.57;;;24.20;99.90;;;;;;5007361;28;20508;-86
2021/07/15 17:09:53;;;;;;;8.83;8.13;;;24.30;99.90;;;;;;5000783;28;20465;-85
2021/07/15 17:12:20;;;;;;;9.47;8.67;;;24.30;99.90;;;;;;5001326;28;20498;-84
2021/07/15 17:14:47;;;;;;;11.13;8.83;;;24.20;99.90;;;;;;5007598;28;20445;-86
2021/07/15 17:17:14;;;;;;;10.57;9.67;;;24.40;99.90;;;;;;5022570;28;20474;-84
2021/07/15 17:19:42;;;;;;;9.87;9.07;;;24.30;99.90;;;;;;5023887;28;20449;-86
2021/07/15 17:22:09;;;;;;;10.90;10.00;;;24.30;99.90;;;;;;5003803;28;20584;-85
2021/07/15 17:24:35;;;;;;;11.97;10.97;;;24.20;99.90;;;;;;5008528;28;20437;-87
2021/07/15 17:27:02;;;;;;;13.70;12.60;;;24.30;99.90;;;;;;5039089;28;20452;-86
2021/07/15 17:29:29;;;;;;;13.90;12.80;;;24.30;99.90;;;;;;5038145;28;20769;-87
2021/07/15 17:31:56;;;;;;;15.43;14.13;;;24.30;99.90;;;;;;5035939;28;20469;-88
2021/07/15 17:34:24;;;;;;;15.60;14.20;;;24.30;99.90;;;;;;5037116;28;20950;-88
2021/07/15 17:36:51;;;;;;;19.93;18.13;;;24.40;99.90;;;;;;5026099;28;20427;-86
2021/07/15 17:39:18;;;;;;;20.10;18.40;;;24.30;99.90;;;;;;5011547;28;20451;-86
2021/07/15 17:41:44;;;;;;;20.87;18.93;;;24.20;99.90;;;;;;5019671;28;20474;-87
2021/07/15 17:44:12;;;;;;;20.87;19.07;;;24.10;99.90;;;;;;4999994;28;20458;-86
2021/07/15 17:46:41;;;;;;;21.00;19.20;;;24.00;99.90;;;;;;5009752;28;20458;-88